Time;durP1;ratioP1;P1;durP2;ratioP2;P2;SDS_P1;SDS_P2;PMS_P1;PMS_P2;Temp;Humidity;BMP_temperature;BMP_pressure;BME280_temperature;BME280_humidity;BME280_pressure;Samples;Min_cycle;Max_cycle;Signal;HPM_P1;HPM_P2
2022/03/11 00:02:18;;;;;;;32.03;16.30;;;3.50;99.90;;;;;;5072418;28;20032;-83
2022/03/11 00:04:52;;;;;;;33.15;14.70;;;3.40;99.90;;;;;;5072730;28;20143;-83
2022/03/11 00:07:18;;;;;;;32.30;16.40;;;3.40;99.90;;;;;;5054974;28;20046;-84
2022/03/11 00:09:44;;;;;;;24.92;14.55;;;3.40;99.90;;;;;;5072834;28;20342;-84
2022/03/11 00:12:10;;;;;;;28.33;14.27;;;3.30;99.90;;;;;;5072896;28;20084;-83
2022/03/11 00:14:37;;;;;;;25.15;14.38;;;3.30;99.90;;;;;;5072590;28;20063;-83
2022/03/11 00:17:03;;;;;;;28.67;15.27;;;3.30;99.90;;;;;;5072801;28;20020;-83
2022/03/11 00:19:33;;;;;;;30.42;13.77;;;3.20;99.90;;;;;;5054949;28;20391;-83
2022/03/11 00:21:59;;;;;;;29.63;14.10;;;3.20;99.90;;;;;;5072711;28;20025;-83
2022/03/11 00:24:24;;;;;;;31.23;14.68;;;3.20;99.90;;;;;;5054784;28;20381;-83
2022/03/11 00:26:53;;;;;;;23.92;13.35;;;3.20;99.90;;;;;;5072768;28;20357;-83
2022/03/11 00:29:19;;;;;;;28.63;15.38;;;3.10;99.90;;;;;;5054536;28;20028;-82
2022/03/11 00:31:45;;;;;;;31.98;15.00;;;3.10;99.90;;;;;;5072643;28;20070;-82
2022/03/11 00:34:15;;;;;;;31.38;14.18;;;3.10;99.90;;;;;;5054291;28;20074;-83
2022/03/11 00:36:43;;;;;;;30.75;16.00;;;3.00;99.90;;;;;;5072513;28;20013;-83
2022/03/11 00:39:08;;;;;;;30.70;14.40;;;3.00;99.90;;;;;;5072466;28;20396;-83
2022/03/11 00:41:35;;;;;;;26.50;13.35;;;3.00;99.90;;;;;;5056084;28;20073;-83
2022/03/11 00:44:00;;;;;;;22.50;12.80;;;2.90;99.90;;;;;;5060927;28;20020;-83
2022/03/11 00:46:26;;;;;;;23.48;13.15;;;2.90;99.90;;;;;;5079253;28;20077;-83
2022/03/11 00:49:01;;;;;;;24.75;13.13;;;2.90;99.90;;;;;;5060979;28;20025;-83
2022/03/11 00:51:27;;;;;;;22.60;12.32;;;2.90;99.90;;;;;;5079253;28;20027;-83
2022/03/11 00:53:52;;;;;;;27.70;13.32;;;2.80;99.90;;;;;;5078921;28;20045;-83
2022/03/11 00:56:31;;;;;;;28.48;13.88;;;2.90;99.90;;;;;;5079236;28;20048;-83
2022/03/11 00:58:57;;;;;;;23.15;12.57;;;2.80;99.90;;;;;;5078843;28;20024;-83
2022/03/11 01:01:23;;;;;;;28.67;13.40;;;2.80;99.90;;;;;;5079081;28;20032;-83
2022/03/11 01:03:50;;;;;;;24.30;12.13;;;2.70;99.90;;;;;;5078961;28;20013;-83
2022/03/11 01:06:15;;;;;;;25.13;12.23;;;2.80;99.90;;;;;;5079120;28;20027;-83
2022/03/11 01:08:41;;;;;;;26.95;12.82;;;2.70;99.90;;;;;;5078975;28;20020;-83
2022/03/11 01:11:11;;;;;;;24.88;13.65;;;2.70;99.90;;;;;;5061031;28;20491;-82
2022/03/11 01:13:38;;;;;;;24.45;13.15;;;2.60;99.90;;;;;;5077670;28;20028;-83
2022/03/11 01:16:04;;;;;;;26.58;13.27;;;2.70;99.90;;;;;;5078544;28;20020;-83
2022/03/11 01:18:35;;;;;;;24.13;14.18;;;2.60;99.90;;;;;;5060904;28;20383;-83
2022/03/11 01:21:00;;;;;;;25.77;12.80;;;2.60;99.90;;;;;;5078583;28;20379;-83
2022/03/11 01:23:26;;;;;;;25.20;12.65;;;2.50;99.90;;;;;;5061004;28;20016;-83
2022/03/11 01:25:52;;;;;;;28.70;13.32;;;2.60;99.90;;;;;;5078841;28;20035;-83
2022/03/11 01:28:17;;;;;;;34.22;13.40;;;2.60;99.90;;;;;;5078262;28;20017;-83
2022/03/11 01:30:43;;;;;;;26.10;13.73;;;2.50;99.90;;;;;;5078938;28;20033;-83
2022/03/11 01:33:11;;;;;;;26.75;12.73;;;2.60;99.90;;;;;;5078737;28;20017;-82
2022/03/11 01:35:36;;;;;;;24.00;12.50;;;2.50;99.90;;;;;;5078740;28;20039;-82
2022/03/11 01:38:02;;;;;;;26.20;12.43;;;2.40;99.90;;;;;;5060968;28;20107;-82
2022/03/11 01:40:29;;;;;;;24.77;13.00;;;2.50;99.90;;;;;;5078884;28;20048;-83
2022/03/11 01:42:54;;;;;;;23.85;12.20;;;2.50;99.90;;;;;;5060106;28;20023;-83
2022/03/11 01:45:20;;;;;;;24.38;11.70;;;2.40;99.90;;;;;;5078697;28;20476;-82
2022/03/11 01:47:48;;;;;;;24.20;13.13;;;2.30;99.90;;;;;;5060788;28;20021;-82
2022/03/11 01:50:14;;;;;;;26.10;12.98;;;2.30;99.90;;;;;;5058588;28;20051;-83
2022/03/11 01:52:40;;;;;;;25.83;13.07;;;2.30;99.90;;;;;;5057064;28;20116;-83
2022/03/11 01:55:18;;;;;;;29.85;13.18;;;2.20;99.90;;;;;;5055292;28;20029;-82
2022/03/11 01:57:44;;;;;;;29.63;14.32;;;2.10;99.90;;;;;;5057181;28;20025;-82
2022/03/11 02:00:10;;;;;;;21.27;12.82;;;2.10;99.90;;;;;;5075354;28;20043;-82
2022/03/11 02:02:43;;;;;;;29.63;13.35;;;2.10;99.90;;;;;;5075346;28;20542;-83
2022/03/11 02:05:09;;;;;;;26.77;13.15;;;2.10;99.90;;;;;;5075310;28;20419;-82
2022/03/11 02:07:34;;;;;;;25.30;13.48;;;2.00;99.90;;;;;;5075073;28;20021;-83
2022/03/11 02:10:00;;;;;;;33.70;14.13;;;2.00;99.90;;;;;;5075359;28;20028;-83
2022/03/11 02:12:36;;;;;;;26.75;12.93;;;2.00;99.90;;;;;;5056867;28;20028;-83
2022/03/11 02:15:07;;;;;;;23.98;12.52;;;2.00;99.90;;;;;;5075260;28;20505;-82
2022/03/11 02:17:32;;;;;;;20.80;12.30;;;2.00;99.90;;;;;;5053916;28;20033;-82
2022/03/11 02:19:58;;;;;;;29.70;12.98;;;2.00;99.90;;;;;;5055049;28;20109;-83
2022/03/11 02:22:38;;;;;;;29.35;12.52;;;2.00;99.90;;;;;;5060735;28;20017;-83
2022/03/11 02:25:08;;;;;;;27.02;13.65;;;2.00;99.90;;;;;;5055217;28;20017;-83
2022/03/11 02:27:38;;;;;;;27.15;13.70;;;2.00;99.90;;;;;;5054633;28;20025;-82
2022/03/11 02:30:16;;;;;;;25.30;12.57;;;2.00;99.90;;;;;;5074715;28;20404;-82
2022/03/11 02:32:42;;;;;;;25.75;13.30;;;1.90;99.90;;;;;;5036800;28;20124;-82
2022/03/11 02:35:08;;;;;;;25.48;12.80;;;1.80;99.90;;;;;;5037157;28;20036;-83
2022/03/11 02:37:36;;;;;;;24.38;13.32;;;1.80;99.90;;;;;;5074578;28;20029;-82
2022/03/11 02:40:03;;;;;;;25.08;13.40;;;1.80;99.90;;;;;;5074519;28;20047;-83
2022/03/11 02:42:29;;;;;;;27.17;13.80;;;1.80;99.90;;;;;;5056573;28;20020;-82
2022/03/11 02:44:54;;;;;;;20.25;11.80;;;1.80;99.90;;;;;;5074347;28;20016;-82
2022/03/11 02:47:20;;;;;;;24.02;12.88;;;1.80;99.90;;;;;;5074479;28;20025;-82
2022/03/11 02:49:58;;;;;;;26.60;14.07;;;1.80;99.90;;;;;;5074383;28;20029;-82
2022/03/11 02:52:28;;;;;;;34.35;13.98;;;1.70;99.90;;;;;;5056349;28;20508;-83
2022/03/11 02:54:54;;;;;;;25.27;13.50;;;1.70;99.90;;;;;;5056340;28;20246;-82
2022/03/11 02:57:20;;;;;;;29.40;12.05;;;1.70;99.90;;;;;;5073936;28;20118;-82
2022/03/11 03:00:26;;;;;;;27.85;13.77;;;1.70;99.90;;;;;;5074275;28;20101;-82
2022/03/11 03:02:52;;;;;;;29.15;14.02;;;1.70;99.90;;;;;;5073985;28;20516;-82
2022/03/11 03:05:17;;;;;;;25.52;12.20;;;1.70;99.90;;;;;;5073005;28;20108;-82
2022/03/11 03:07:53;;;;;;;26.25;14.32;;;1.70;99.90;;;;;;5074168;28;20052;-82
2022/03/11 03:10:19;;;;;;;27.55;14.25;;;1.70;99.90;;;;;;5056039;28;20021;-81
2022/03/11 03:12:45;;;;;;;26.27;13.70;;;1.70;99.90;;;;;;5055430;28;20420;-82
2022/03/11 03:15:26;;;;;;;24.95;12.82;;;1.70;99.90;;;;;;5073978;28;20056;-82
2022/03/11 03:17:51;;;;;;;24.30;13.13;;;1.70;99.90;;;;;;5056394;28;20051;-82
2022/03/11 03:20:17;;;;;;;26.83;14.27;;;1.70;99.90;;;;;;5073616;28;20025;-82
2022/03/11 03:22:43;;;;;;;27.30;13.23;;;1.60;99.90;;;;;;5055794;28;20024;-82
2022/03/11 03:25:09;;;;;;;23.23;12.30;;;1.60;99.90;;;;;;5073901;28;20380;-82
2022/03/11 03:27:35;;;;;;;22.67;11.55;;;1.50;99.90;;;;;;5073473;28;20016;-82
2022/03/11 03:30:06;;;;;;;27.05;12.60;;;1.40;99.90;;;;;;5073660;28;20039;-82
2022/03/11 03:32:32;;;;;;;22.70;12.70;;;1.30;99.90;;;;;;5055670;28;20020;-82
2022/03/11 03:34:57;;;;;;;29.23;13.10;;;1.20;99.90;;;;;;5055681;28;20035;-82
2022/03/11 03:37:25;;;;;;;31.33;14.07;;;1.20;99.90;;;;;;5055609;28;20024;-82
2022/03/11 03:39:51;;;;;;;23.30;12.52;;;1.10;99.90;;;;;;5073394;28;20477;-82
2022/03/11 03:42:16;;;;;;;22.35;13.02;;;1.00;99.90;;;;;;5054879;28;20107;-82
2022/03/11 03:45:03;;;;;;;27.02;13.48;;;0.90;99.90;;;;;;5073438;28;20048;-82
2022/03/11 03:47:28;;;;;;;28.58;12.52;;;0.90;99.90;;;;;;5073157;28;20384;-82
2022/03/11 03:50:04;;;;;;;25.77;12.27;;;0.80;99.90;;;;;;5073321;28;20025;-82
2022/03/11 03:52:33;;;;;;;23.95;12.70;;;0.70;99.90;;;;;;5055010;28;20129;-82
2022/03/11 03:54:59;;;;;;;26.67;13.38;;;0.70;99.90;;;;;;5055495;28;20028;-82
2022/03/11 03:57:26;;;;;;;21.40;11.77;;;0.70;99.90;;;;;;5072860;28;20020;-82
2022/03/11 03:59:59;;;;;;;25.30;13.57;;;0.70;99.90;;;;;;5073090;28;20021;-82
2022/03/11 04:02:24;;;;;;;21.35;12.10;;;0.70;99.90;;;;;;5073016;28;20028;-81
2022/03/11 04:04:50;;;;;;;26.48;13.25;;;0.70;99.90;;;;;;5054899;28;20020;-82
2022/03/11 04:07:34;;;;;;;24.75;13.60;;;0.70;99.90;;;;;;5072812;28;20365;-81
2022/03/11 04:10:00;;;;;;;27.17;14.07;;;0.70;99.90;;;;;;5072978;28;20025;-82
2022/03/11 04:12:26;;;;;;;27.45;13.40;;;0.60;99.90;;;;;;5054476;28;20024;-81
2022/03/11 04:14:52;;;;;;;26.45;13.05;;;0.60;99.90;;;;;;5072953;28;20035;-82
2022/03/11 04:17:18;;;;;;;26.67;13.40;;;0.50;99.90;;;;;;5072650;28;20020;-82
2022/03/11 04:19:43;;;;;;;23.08;11.95;;;0.50;99.90;;;;;;5072927;28;20024;-81
2022/03/11 04:22:13;;;;;;;28.45;14.18;;;0.50;99.90;;;;;;5072823;28;20074;-81
2022/03/11 04:24:39;;;;;;;31.73;13.40;;;0.50;99.90;;;;;;5072590;28;20035;-81
2022/03/11 04:27:07;;;;;;;30.80;12.93;;;0.40;99.90;;;;;;5072806;28;20028;-81
2022/03/11 04:29:32;;;;;;;21.50;12.18;;;0.40;99.90;;;;;;5072735;28;20086;-82
2022/03/11 04:31:58;;;;;;;31.40;12.57;;;0.40;99.90;;;;;;5072453;28;20033;-81
2022/03/11 04:34:29;;;;;;;32.30;13.10;;;0.40;99.90;;;;;;5072584;28;20043;-81
2022/03/11 04:36:56;;;;;;;25.52;13.00;;;0.40;99.90;;;;;;5054567;28;20027;-81
2022/03/11 04:39:24;;;;;;;31.35;12.02;;;0.50;99.90;;;;;;5072463;28;20028;-80
2022/03/11 04:41:50;;;;;;;29.50;12.80;;;0.50;99.90;;;;;;5054509;28;20028;-81
2022/03/11 04:44:16;;;;;;;24.45;12.38;;;0.50;99.90;;;;;;5054417;28;20036;-81
2022/03/11 04:46:41;;;;;;;31.55;12.65;;;0.60;99.90;;;;;;5072544;28;20099;-81
2022/03/11 04:49:07;;;;;;;24.27;11.57;;;0.60;99.90;;;;;;5072642;28;20465;-81
2022/03/11 04:51:32;;;;;;;23.88;11.18;;;0.70;99.90;;;;;;5072354;28;20074;-81
2022/03/11 04:53:59;;;;;;;35.00;12.02;;;0.60;99.90;;;;;;5071673;28;20068;-81
2022/03/11 04:56:26;;;;;;;22.73;11.93;;;0.60;99.90;;;;;;5072455;28;20028;-81
2022/03/11 04:58:52;;;;;;;22.75;10.80;;;0.60;99.90;;;;;;5072464;28;20508;-81
2022/03/11 05:01:17;;;;;;;23.02;10.95;;;0.60;99.90;;;;;;5072507;28;20028;-81
2022/03/11 05:03:43;;;;;;;24.10;10.73;;;0.60;99.90;;;;;;5054270;28;20020;-81
2022/03/11 05:06:10;;;;;;;31.70;11.57;;;0.60;99.90;;;;;;5072294;28;20108;-81
2022/03/11 05:08:36;;;;;;;24.08;10.82;;;0.50;99.90;;;;;;5054316;28;20484;-81
2022/03/11 05:11:01;;;;;;;26.70;12.25;;;0.50;99.90;;;;;;5072531;28;20024;-80
2022/03/11 05:13:27;;;;;;;22.48;10.73;;;0.50;99.90;;;;;;5053978;28;20027;-80
2022/03/11 05:15:52;;;;;;;35.45;12.27;;;0.40;99.90;;;;;;5072592;28;20086;-80
2022/03/11 05:18:20;;;;;;;25.42;11.45;;;0.40;99.90;;;;;;5071913;28;20016;-80
2022/03/11 05:20:46;;;;;;;25.40;12.40;;;0.40;99.90;;;;;;5071847;28;20036;-80
2022/03/11 05:23:12;;;;;;;27.17;11.68;;;0.30;99.90;;;;;;5071889;28;20372;-81
2022/03/11 05:25:37;;;;;;;23.55;12.02;;;0.20;99.90;;;;;;5072323;28;20103;-81
2022/03/11 05:28:03;;;;;;;24.17;13.07;;;0.10;99.90;;;;;;5053776;28;20143;-81
2022/03/11 05:30:36;;;;;;;24.65;11.93;;;0.10;99.90;;;;;;5073971;28;20388;-81
2022/03/11 05:33:03;;;;;;;30.77;11.93;;;0.10;99.90;;;;;;5075938;28;20078;-81
2022/03/11 05:35:38;;;;;;;20.02;10.70;;;0.10;99.90;;;;;;5076179;28;20074;-80
2022/03/11 05:38:04;;;;;;;29.73;12.60;;;0.10;99.90;;;;;;5075533;28;20468;-81
2022/03/11 05:40:29;;;;;;;28.83;13.15;;;0.10;99.90;;;;;;5075626;28;20290;-80
2022/03/11 05:42:57;;;;;;;26.65;12.25;;;0.10;99.90;;;;;;5057917;28;20025;-80
2022/03/11 05:45:22;;;;;;;23.88;12.13;;;0.20;99.90;;;;;;5075605;28;20017;-81
2022/03/11 05:47:48;;;;;;;31.70;12.70;;;0.20;99.90;;;;;;5057538;28;20461;-80
2022/03/11 05:50:14;;;;;;;26.08;12.65;;;0.20;99.90;;;;;;5075649;28;20032;-81
2022/03/11 05:52:42;;;;;;;29.02;13.15;;;0.20;99.90;;;;;;5075156;28;20024;-81
2022/03/11 05:55:08;;;;;;;28.25;11.63;;;0.20;99.90;;;;;;5075566;28;20107;-80
2022/03/11 05:57:34;;;;;;;26.25;12.23;;;0.30;99.90;;;;;;5075268;28;20034;-81
2022/03/11 06:00:01;;;;;;;27.95;12.75;;;0.30;99.90;;;;;;5075694;28;20421;-82
2022/03/11 06:02:28;;;;;;;26.75;12.68;;;0.30;99.90;;;;;;5075052;28;20016;-81
2022/03/11 06:04:53;;;;;;;26.08;11.90;;;0.30;99.90;;;;;;5057581;28;20044;-81
2022/03/11 06:07:20;;;;;;;33.10;12.52;;;0.40;99.90;;;;;;5075193;28;20474;-81
2022/03/11 06:09:46;;;;;;;24.42;11.75;;;0.40;99.90;;;;;;5074702;28;20112;-81
2022/03/11 06:12:12;;;;;;;30.63;12.95;;;0.40;99.90;;;;;;5056617;28;20540;-80
2022/03/11 06:14:37;;;;;;;30.50;12.95;;;0.40;99.90;;;;;;5065678;28;20033;-81
2022/03/11 06:17:36;;;;;;;29.20;12.15;;;0.40;99.90;;;;;;5055022;28;20032;-81
2022/03/11 06:20:02;;;;;;;22.52;11.68;;;0.40;99.90;;;;;;5065676;28;20532;-81
2022/03/11 06:22:28;;;;;;;25.60;12.98;;;0.40;99.90;;;;;;5070726;28;20032;-82
2022/03/11 06:24:54;;;;;;;29.35;12.75;;;0.40;99.90;;;;;;5071618;28;20392;-81
2022/03/11 06:27:20;;;;;;;26.27;13.10;;;0.40;99.90;;;;;;5073431;28;20024;-81
2022/03/11 06:29:45;;;;;;;30.48;13.40;;;0.50;99.90;;;;;;5055838;28;20028;-81
2022/03/11 06:32:11;;;;;;;26.88;13.95;;;0.50;99.90;;;;;;5056030;28;20040;-81
2022/03/11 06:34:37;;;;;;;24.08;11.43;;;0.50;99.90;;;;;;5073597;28;20033;-81
2022/03/11 06:37:03;;;;;;;31.23;11.38;;;0.50;99.90;;;;;;5073804;28;20039;-81
2022/03/11 06:39:29;;;;;;;26.52;11.07;;;0.50;99.90;;;;;;5055468;28;20035;-82
2022/03/11 06:41:54;;;;;;;19.77;10.10;;;0.60;99.90;;;;;;5072955;28;20029;-81
2022/03/11 06:44:20;;;;;;;25.50;10.65;;;0.60;99.90;;;;;;5073776;28;20465;-80
2022/03/11 06:46:45;;;;;;;28.65;11.57;;;0.70;99.90;;;;;;5055394;28;20167;-80
2022/03/11 06:49:11;;;;;;;26.52;12.88;;;0.70;99.90;;;;;;5056007;28;20033;-80
2022/03/11 06:51:38;;;;;;;28.42;11.02;;;0.70;99.90;;;;;;5055922;28;20464;-80
2022/03/11 06:54:06;;;;;;;27.98;10.85;;;0.80;99.90;;;;;;5072949;28;20742;-81
2022/03/11 06:56:32;;;;;;;24.63;11.80;;;0.80;99.90;;;;;;5073236;28;20055;-80
2022/03/11 06:58:58;;;;;;;24.30;10.85;;;0.90;99.90;;;;;;5072836;28;20392;-80
2022/03/11 07:01:24;;;;;;;25.02;10.77;;;0.90;99.90;;;;;;5073346;28;20029;-80
2022/03/11 07:03:50;;;;;;;20.80;10.82;;;0.90;99.90;;;;;;5073416;28;20480;-80
2022/03/11 07:06:16;;;;;;;30.80;12.48;;;1.00;99.90;;;;;;5073000;28;20474;-80
2022/03/11 07:08:41;;;;;;;27.70;12.68;;;1.00;99.90;;;;;;5073262;28;20073;-80
2022/03/11 07:11:07;;;;;;;23.50;12.23;;;1.00;99.90;;;;;;5055337;28;20020;-80
2022/03/11 07:13:34;;;;;;;21.50;10.95;;;1.00;99.90;;;;;;5073175;28;20047;-81
2022/03/11 07:15:59;;;;;;;26.05;12.38;;;1.10;99.90;;;;;;5071064;28;20026;-81
2022/03/11 07:18:25;;;;;;;23.65;11.23;;;1.10;99.90;;;;;;5072373;28;20028;-81
2022/03/11 07:20:50;;;;;;;23.40;11.18;;;1.10;99.90;;;;;;5053238;28;20029;-80
2022/03/11 07:23:16;;;;;;;21.70;10.90;;;1.20;99.90;;;;;;5054924;28;20016;-81
2022/03/11 07:25:41;;;;;;;25.70;10.75;;;1.20;99.90;;;;;;5073343;28;20100;-81
2022/03/11 07:28:08;;;;;;;21.30;9.75;;;1.30;99.90;;;;;;5072607;28;20053;-81
2022/03/11 07:30:34;;;;;;;25.50;11.05;;;1.40;99.90;;;;;;5055412;28;20035;-81
2022/03/11 07:33:01;;;;;;;21.35;10.52;;;1.40;99.90;;;;;;5072947;28;20503;-80
2022/03/11 07:35:27;;;;;;;18.92;10.48;;;1.40;99.90;;;;;;5053330;28;20031;-80
2022/03/11 07:37:52;;;;;;;21.23;9.88;;;1.40;99.90;;;;;;5072049;28;20424;-80
2022/03/11 07:40:18;;;;;;;19.67;9.95;;;1.50;99.90;;;;;;5072342;28;20020;-80
2022/03/11 07:42:43;;;;;;;25.23;10.05;;;1.50;99.90;;;;;;5070123;28;20416;-81
2022/03/11 07:45:11;;;;;;;30.13;11.90;;;1.50;99.90;;;;;;5072680;28;20013;-81
2022/03/11 07:47:37;;;;;;;24.42;12.30;;;1.60;99.90;;;;;;5072972;28;20049;-80
2022/03/11 07:50:04;;;;;;;21.98;11.00;;;1.60;99.90;;;;;;5058819;28;20104;-81
2022/03/11 07:52:29;;;;;;;25.13;10.68;;;1.60;99.90;;;;;;5052242;28;20024;-81
2022/03/11 07:54:56;;;;;;;29.25;11.52;;;1.60;99.90;;;;;;5052676;28;20116;-81
2022/03/11 07:57:21;;;;;;;24.02;10.63;;;1.60;99.90;;;;;;5033610;28;20423;-80
2022/03/11 07:59:47;;;;;;;22.05;10.93;;;1.70;99.90;;;;;;5051276;28;20068;-81
2022/03/11 08:02:14;;;;;;;21.02;10.35;;;1.80;99.90;;;;;;5051668;28;20029;-81
2022/03/11 08:04:40;;;;;;;21.98;10.18;;;1.80;99.90;;;;;;5045938;28;20116;-81
2022/03/11 08:07:11;;;;;;;28.67;9.30;;;1.90;99.90;;;;;;5051744;28;20552;-81
2022/03/11 08:09:42;;;;;;;19.13;9.73;;;1.90;99.90;;;;;;5034593;28;20095;-81
2022/03/11 08:12:08;;;;;;;22.20;10.50;;;2.00;99.90;;;;;;5050729;28;20025;-81
2022/03/11 08:14:34;;;;;;;26.02;10.25;;;2.00;99.90;;;;;;5051434;28;20033;-81
2022/03/11 08:16:59;;;;;;;26.40;10.60;;;2.10;99.10;;;;;;5051433;28;20036;-80
2022/03/11 08:19:25;;;;;;;27.00;9.80;;;2.10;99.90;;;;;;5027931;28;20040;-80
2022/03/11 08:21:52;;;;;;;22.45;10.02;;;2.20;98.50;;;;;;5050885;28;20482;-81
2022/03/11 08:24:19;;;;;;;21.42;10.15;;;2.20;96.80;;;;;;5045962;28;20070;-81
2022/03/11 08:26:54;;;;;;;26.05;11.10;;;2.20;96.50;;;;;;5051827;28;20021;-81
2022/03/11 08:29:20;;;;;;;24.73;10.90;;;2.30;97.10;;;;;;5051187;28;20488;-80
2022/03/11 08:31:47;;;;;;;34.13;11.57;;;2.40;96.40;;;;;;5052514;28;20029;-80
2022/03/11 08:34:13;;;;;;;28.02;10.68;;;2.40;96.10;;;;;;5050759;28;20054;-80
2022/03/11 08:36:39;;;;;;;23.13;10.63;;;2.40;94.80;;;;;;5052344;28;20022;-81
2022/03/11 08:39:05;;;;;;;22.77;10.77;;;2.50;95.00;;;;;;5052245;28;20024;-81
2022/03/11 08:41:32;;;;;;;25.65;10.70;;;2.50;95.00;;;;;;5051832;28;20025;-80
2022/03/11 08:43:59;;;;;;;25.40;10.55;;;2.50;95.50;;;;;;5034211;28;20029;-80
2022/03/11 08:46:29;;;;;;;22.27;10.30;;;2.60;93.80;;;;;;5052363;28;20024;-81
2022/03/11 08:48:55;;;;;;;26.17;10.20;;;2.60;94.60;;;;;;5052219;28;20029;-81
2022/03/11 08:51:20;;;;;;;25.92;10.98;;;2.60;94.40;;;;;;5052141;28;20033;-81
2022/03/11 08:53:46;;;;;;;19.17;9.43;;;2.70;92.80;;;;;;5063699;28;20036;-80
2022/03/11 08:56:15;;;;;;;19.48;10.00;;;2.80;91.30;;;;;;5071845;28;20468;-81
2022/03/11 08:58:40;;;;;;;20.63;9.88;;;2.90;91.00;;;;;;5072260;28;20477;-81
2022/03/11 09:01:06;;;;;;;23.95;11.05;;;2.90;89.80;;;;;;5071917;28;20112;-81
2022/03/11 09:03:32;;;;;;;20.88;10.18;;;3.00;90.10;;;;;;5074480;28;20025;-80
2022/03/11 09:05:58;;;;;;;18.92;10.50;;;3.00;88.50;;;;;;5058226;28;20056;-81
2022/03/11 09:08:23;;;;;;;22.75;9.80;;;3.00;85.10;;;;;;5076168;28;20100;-81
2022/03/11 09:10:49;;;;;;;27.58;10.77;;;3.10;88.70;;;;;;5057781;28;20599;-81
2022/03/11 09:13:15;;;;;;;21.55;9.52;;;3.10;89.50;;;;;;5057966;28;20028;-81
2022/03/11 09:15:40;;;;;;;20.65;10.18;;;3.10;90.60;;;;;;5075982;28;20060;-81
2022/03/11 09:18:06;;;;;;;25.20;9.70;;;3.20;87.50;;;;;;5075843;28;20506;-81
2022/03/11 09:20:32;;;;;;;20.80;9.50;;;3.20;87.50;;;;;;5075800;28;20024;-81
2022/03/11 09:22:57;;;;;;;22.40;10.27;;;3.30;81.40;;;;;;5075665;28;20021;-81
2022/03/11 09:25:23;;;;;;;22.75;11.15;;;3.30;82.00;;;;;;5075699;28;20027;-81
2022/03/11 09:27:49;;;;;;;24.15;10.02;;;3.40;86.50;;;;;;5075244;28;20023;-80
2022/03/11 09:30:15;;;;;;;30.17;10.20;;;3.40;86.40;;;;;;5075608;28;20485;-81
2022/03/11 09:32:40;;;;;;;20.45;9.93;;;3.50;77.10;;;;;;5075544;28;20020;-81
2022/03/11 09:35:07;;;;;;;37.22;9.48;;;3.60;73.00;;;;;;5075456;28;20039;-81
2022/03/11 09:37:33;;;;;;;25.17;9.95;;;3.60;68.90;;;;;;5057734;28;20025;-81
2022/03/11 09:39:58;;;;;;;23.98;9.55;;;3.60;72.40;;;;;;5057449;28;20042;-81
2022/03/11 09:42:24;;;;;;;22.33;10.40;;;3.70;71.70;;;;;;5074977;28;20020;-81
2022/03/11 09:44:53;;;;;;;22.17;10.07;;;3.70;71.50;;;;;;5075188;28;20028;-81
2022/03/11 09:47:19;;;;;;;21.73;9.55;;;3.70;75.10;;;;;;5074922;28;20123;-81
2022/03/11 09:49:46;;;;;;;23.13;9.82;;;3.80;72.50;;;;;;5074926;28;20064;-81
2022/03/11 09:52:13;;;;;;;23.85;11.23;;;3.80;71.80;;;;;;5075068;28;20107;-81
2022/03/11 09:54:38;;;;;;;20.35;9.48;;;3.90;69.40;;;;;;5074948;28;20036;-81
2022/03/11 09:57:04;;;;;;;23.20;10.00;;;4.00;66.70;;;;;;5067694;28;20492;-81
2022/03/11 09:59:30;;;;;;;25.02;9.25;;;4.10;65.30;;;;;;5076881;28;20059;-81
2022/03/11 10:01:57;;;;;;;21.25;9.50;;;4.10;61.50;;;;;;5077017;28;20069;-80
2022/03/11 10:04:22;;;;;;;24.20;9.55;;;4.10;62.80;;;;;;5095220;28;20023;-82
2022/03/11 10:06:48;;;;;;;23.52;9.13;;;4.20;62.40;;;;;;5095072;28;20020;-82
2022/03/11 10:09:20;;;;;;;17.02;7.80;;;4.30;60.20;;;;;;5095078;28;20031;-81
2022/03/11 10:11:46;;;;;;;22.05;9.00;;;4.30;59.30;;;;;;5076818;28;20039;-81
2022/03/11 10:14:12;;;;;;;22.38;10.18;;;4.40;57.10;;;;;;5076110;28;20020;-81
2022/03/11 10:16:38;;;;;;;21.58;9.05;;;4.40;57.50;;;;;;5076963;28;20026;-80
2022/03/11 10:19:09;;;;;;;19.05;9.32;;;4.50;57.50;;;;;;5094931;28;20024;-81
2022/03/11 10:21:38;;;;;;;19.85;9.23;;;4.50;58.70;;;;;;5076679;28;20028;-81
2022/03/11 10:24:07;;;;;;;20.88;8.90;;;4.60;57.30;;;;;;5094684;28;20023;-81
2022/03/11 10:26:47;;;;;;;18.58;8.80;;;4.60;56.90;;;;;;5094600;28;20106;-81
2022/03/11 10:29:18;;;;;;;19.27;9.25;;;4.80;56.20;;;;;;5094722;28;20469;-81
2022/03/11 10:31:46;;;;;;;22.90;9.32;;;4.80;54.60;;;;;;5094747;28;20054;-81
2022/03/11 10:34:12;;;;;;;32.95;8.95;;;4.90;53.00;;;;;;5094530;28;20070;-81
2022/03/11 10:36:55;;;;;;;24.60;9.35;;;5.00;51.90;;;;;;5094701;28;20024;-81
2022/03/11 10:39:29;;;;;;;16.92;8.88;;;5.00;51.50;;;;;;5094569;28;20165;-81
2022/03/11 10:41:56;;;;;;;19.75;8.75;;;5.00;54.80;;;;;;5076062;28;20028;-81
2022/03/11 10:44:27;;;;;;;30.30;9.10;;;5.10;54.10;;;;;;5094470;28;20028;-81
2022/03/11 10:46:54;;;;;;;18.02;8.63;;;5.20;50.50;;;;;;5094482;28;20031;-81
2022/03/11 10:49:25;;;;;;;19.02;8.93;;;5.30;50.00;;;;;;5094297;28;20047;-81
2022/03/11 10:51:53;;;;;;;26.20;9.95;;;5.30;50.80;;;;;;5094226;28;20089;-81
2022/03/11 10:54:18;;;;;;;22.27;7.88;;;5.40;49.50;;;;;;5075944;28;20043;-82
2022/03/11 10:56:44;;;;;;;21.02;8.68;;;5.40;49.60;;;;;;5093984;28;20449;-81
2022/03/11 10:59:23;;;;;;;15.93;7.88;;;5.50;49.50;;;;;;5075752;28;20353;-81
2022/03/11 11:01:52;;;;;;;17.60;8.20;;;5.60;50.80;;;;;;5094238;28;20105;-81
2022/03/11 11:04:18;;;;;;;18.80;8.68;;;5.70;49.20;;;;;;5093994;28;20029;-81
2022/03/11 11:06:45;;;;;;;25.40;8.32;;;5.80;49.00;;;;;;5094110;28;20028;-81
2022/03/11 11:09:12;;;;;;;15.82;8.20;;;5.80;49.00;;;;;;5093774;28;20024;-82
2022/03/11 11:11:39;;;;;;;18.52;8.77;;;5.90;47.30;;;;;;5093539;28;20398;-82
2022/03/11 11:14:07;;;;;;;25.63;8.35;;;5.80;47.70;;;;;;5093644;28;20020;-82
2022/03/11 11:16:39;;;;;;;22.20;8.77;;;5.80;48.10;;;;;;5093901;28;20023;-82
2022/03/11 11:19:10;;;;;;;17.80;8.65;;;5.80;48.40;;;;;;5093761;28;20024;-82
2022/03/11 11:21:39;;;;;;;30.23;8.68;;;5.90;49.30;;;;;;5093708;28;20032;-82
2022/03/11 11:24:30;;;;;;;14.27;8.25;;;6.00;47.10;;;;;;5074963;28;20024;-82
2022/03/11 11:26:56;;;;;;;22.80;9.02;;;6.00;46.10;;;;;;5091559;28;20564;-83
2022/03/11 11:29:26;;;;;;;16.88;9.45;;;6.10;47.60;;;;;;5093523;28;20039;-82
2022/03/11 11:31:52;;;;;;;18.23;8.00;;;6.20;48.00;;;;;;5093342;28;20463;-83
2022/03/11 11:34:31;;;;;;;22.45;9.93;;;6.20;47.40;;;;;;5093434;28;20107;-83
2022/03/11 11:36:58;;;;;;;16.77;8.27;;;6.30;47.00;;;;;;5093497;28;20123;-82
2022/03/11 11:39:26;;;;;;;18.92;8.57;;;6.30;46.30;;;;;;5093515;28;20055;-82
2022/03/11 11:41:57;;;;;;;22.75;8.85;;;6.40;46.40;;;;;;5093078;28;20028;-81
2022/03/11 11:44:37;;;;;;;33.13;8.80;;;6.40;46.40;;;;;;5093300;28;20472;-82
2022/03/11 11:47:09;;;;;;;25.58;8.80;;;6.40;45.20;;;;;;5093164;28;20069;-82
2022/03/11 11:49:52;;;;;;;22.35;8.73;;;6.40;45.30;;;;;;5075167;28;20112;-83
2022/03/11 11:52:35;;;;;;;14.85;8.38;;;6.40;46.40;;;;;;5093226;28;20031;-83
2022/03/11 11:55:21;;;;;;;20.65;8.90;;;6.50;45.70;;;;;;5074982;28;20028;-83
2022/03/11 11:57:48;;;;;;;27.13;8.85;;;6.60;45.50;;;;;;5074894;28;20039;-84
2022/03/11 12:00:34;;;;;;;23.13;8.27;;;6.60;45.80;;;;;;5074578;28;20036;-84
2022/03/11 12:03:00;;;;;;;25.38;9.18;;;6.70;46.40;;;;;;5092926;28;20107;-84
2022/03/11 12:05:44;;;;;;;18.52;8.40;;;6.80;45.40;;;;;;5092965;28;20103;-84
2022/03/11 12:08:31;;;;;;;25.02;8.32;;;6.80;45.20;;;;;;5074543;28;20020;-84
2022/03/11 12:10:58;;;;;;;19.70;7.88;;;6.90;45.90;;;;;;5074300;28;20020;-84
2022/03/11 12:13:41;;;;;;;19.27;9.00;;;7.00;44.60;;;;;;5092725;28;20032;-84
2022/03/11 12:16:21;;;;;;;25.00;9.18;;;7.20;44.40;;;;;;5074449;28;20028;-84
2022/03/11 12:18:47;;;;;;;24.60;9.38;;;7.30;45.80;;;;;;5092878;28;20050;-83
2022/03/11 12:21:28;;;;;;;17.08;8.80;;;7.40;45.60;;;;;;5092799;28;20493;-84
2022/03/11 12:23:54;;;;;;;19.70;7.85;;;7.50;44.00;;;;;;5092719;28;20107;-84
2022/03/11 12:26:35;;;;;;;20.45;8.07;;;7.60;43.60;;;;;;5092336;28;20016;-84
2022/03/11 12:29:00;;;;;;;20.80;7.75;;;7.60;42.50;;;;;;5092570;28;20047;-84
2022/03/11 12:31:26;;;;;;;14.35;8.20;;;7.70;43.30;;;;;;5092511;28;20068;-84
2022/03/11 12:33:54;;;;;;;15.07;7.95;;;7.70;43.20;;;;;;5074477;28;20364;-84
2022/03/11 12:36:22;;;;;;;23.92;7.53;;;7.80;42.60;;;;;;5092372;28;20074;-83
2022/03/11 12:38:49;;;;;;;14.13;7.50;;;7.90;41.80;;;;;;5092082;28;20115;-84
2022/03/11 12:41:24;;;;;;;17.75;8.65;;;8.10;41.60;;;;;;5073836;28;20440;-85
2022/03/11 12:43:49;;;;;;;15.52;7.68;;;8.10;41.70;;;;;;5074242;28;20024;-84
2022/03/11 12:46:15;;;;;;;17.27;8.25;;;8.20;41.80;;;;;;5092278;28;20027;-84